createdAt,value
2018-05-18T00:00:49.453Z,1016.18
2018-05-18T00:01:49.429Z,1016.25
2018-05-18T00:02:49.409Z,1016.22
2018-05-18T00:03:49.382Z,1016.25
2018-05-18T00:04:49.359Z,1016.19
2018-05-18T00:05:49.321Z,1016.23
2018-05-18T00:06:49.301Z,1016.23
2018-05-18T00:07:49.265Z,1016.26
2018-05-18T00:08:49.249Z,1016.21
2018-05-18T00:09:49.220Z,1016.22
2018-05-18T00:10:49.191Z,1016.21
2018-05-18T00:11:49.166Z,1016.20
2018-05-18T00:12:49.139Z,1016.18
2018-05-18T00:13:49.110Z,1016.17
2018-05-18T00:14:49.088Z,1016.14
2018-05-18T00:15:49.055Z,1016.13
2018-05-18T00:16:49.035Z,1016.16
2018-05-18T00:17:49.001Z,1016.19
2018-05-18T00:18:48.982Z,1016.18
2018-05-18T00:19:48.951Z,1016.12
2018-05-18T00:20:48.920Z,1016.20
2018-05-18T00:21:48.902Z,1016.18
2018-05-18T00:22:48.866Z,1016.17
2018-05-18T00:23:48.847Z,1016.15
2018-05-18T00:24:48.811Z,1016.14
2018-05-18T00:25:48.802Z,1016.12
2018-05-18T00:26:48.766Z,1016.09
2018-05-18T00:27:48.740Z,1016.06
2018-05-18T00:28:48.712Z,1016.08
2018-05-18T00:29:48.678Z,1016.10
2018-05-18T00:30:48.655Z,1016.08
2018-05-18T00:31:48.623Z,1016.11
2018-05-18T00:32:48.598Z,1016.07
2018-05-18T00:33:48.578Z,1016.08
2018-05-18T00:34:48.544Z,1016.07
2018-05-18T00:35:48.527Z,1016.13
2018-05-18T00:36:48.498Z,1016.11
2018-05-18T00:37:48.462Z,1016.08
2018-05-18T00:38:48.451Z,1016.04
2018-05-18T00:39:48.412Z,1016.09
2018-05-18T00:40:48.396Z,1016.04
2018-05-18T00:41:48.372Z,1016.01
2018-05-18T00:42:48.334Z,1016.04
2018-05-18T00:43:48.308Z,1016.08
2018-05-18T00:44:48.277Z,1016.05
2018-05-18T00:45:48.259Z,1016.06
2018-05-18T00:46:48.231Z,1016.15
2018-05-18T00:47:48.199Z,1016.10
2018-05-18T00:48:48.182Z,1016.11
2018-05-18T00:49:48.148Z,1016.05
2018-05-18T00:50:48.118Z,1016.04
2018-05-18T00:51:48.091Z,1016.05
2018-05-18T00:52:48.063Z,1016.05
2018-05-18T00:53:48.046Z,1016.02
2018-05-18T00:54:48.011Z,1016.04
2018-05-18T00:55:47.990Z,1016.10
2018-05-18T00:56:47.961Z,1016.05
2018-05-18T00:57:47.934Z,1016.03
2018-05-18T00:58:47.907Z,1016.05
2018-05-18T00:59:47.890Z,1016.02
2018-05-18T01:00:47.852Z,1015.98
2018-05-18T01:01:47.828Z,1015.98
2018-05-18T01:02:47.805Z,1015.97
2018-05-18T01:03:47.769Z,1015.97
2018-05-18T01:04:47.742Z,1015.94
2018-05-18T01:05:47.718Z,1015.95
2018-05-18T01:06:47.695Z,1015.92
2018-05-18T01:07:47.664Z,1015.97
2018-05-18T01:08:47.643Z,1015.92
2018-05-18T01:09:47.608Z,1015.94
2018-05-18T01:10:47.584Z,1015.91
2018-05-18T01:11:47.557Z,1015.95
2018-05-18T01:12:47.531Z,1015.95
2018-05-18T01:13:47.508Z,1015.98
2018-05-18T01:14:47.477Z,1015.97
2018-05-18T01:15:47.548Z,1015.99
2018-05-18T01:16:47.429Z,1015.96
2018-05-18T01:17:47.396Z,1016.02
2018-05-18T01:18:47.367Z,1015.93
2018-05-18T01:19:47.349Z,1015.93
2018-05-18T01:20:47.322Z,1015.97
2018-05-18T01:21:47.287Z,1015.98
2018-05-18T01:22:47.269Z,1016.00
2018-05-18T01:23:47.233Z,1015.97
2018-05-18T01:24:47.206Z,1015.99
2018-05-18T01:25:47.191Z,1015.99
2018-05-18T01:26:47.156Z,1015.99
2018-05-18T01:27:47.136Z,1015.97
2018-05-18T01:28:47.106Z,1016.02
2018-05-18T01:29:47.076Z,1015.96
2018-05-18T01:30:47.046Z,1015.95
2018-05-18T01:31:47.028Z,1015.97
2018-05-18T01:32:46.993Z,1015.93
2018-05-18T01:33:46.982Z,1016.01
2018-05-18T01:34:46.942Z,1015.97
2018-05-18T01:35:46.915Z,1016.00
2018-05-18T01:36:46.882Z,1016.00
2018-05-18T01:37:46.867Z,1016.04
2018-05-18T01:38:46.830Z,1016.04
2018-05-18T01:39:46.818Z,1016.00
2018-05-18T01:40:46.786Z,1016.04
2018-05-18T01:41:46.748Z,1016.03
2018-05-18T01:42:46.735Z,1015.99
2018-05-18T01:43:46.693Z,1015.96
2018-05-18T01:44:46.670Z,1015.97
2018-05-18T01:45:46.649Z,1015.93
2018-05-18T01:46:46.612Z,1015.95
2018-05-18T01:47:46.584Z,1015.91
2018-05-18T01:48:46.567Z,1015.92
2018-05-18T01:49:46.534Z,1015.90
2018-05-18T01:50:46.510Z,1015.92
2018-05-18T01:51:46.489Z,1015.96
2018-05-18T01:52:46.457Z,1015.93
2018-05-18T01:53:46.431Z,1016.02
2018-05-18T01:54:46.430Z,1015.95
2018-05-18T01:55:46.375Z,1016.01
2018-05-18T01:56:46.347Z,1015.98
2018-05-18T01:57:46.325Z,1015.98
2018-05-18T01:58:46.293Z,1015.97
2018-05-18T01:59:46.264Z,1015.97
2018-05-18T02:00:46.240Z,1016.00
2018-05-18T02:01:46.210Z,1015.85
2018-05-18T02:02:46.179Z,1015.93
2018-05-18T02:03:46.164Z,1015.94
2018-05-18T02:04:46.130Z,1015.91
2018-05-18T02:05:46.104Z,1015.94
2018-05-18T02:06:46.084Z,1015.90
2018-05-18T02:07:46.044Z,1015.88
2018-05-18T02:08:46.021Z,1015.89
2018-05-18T02:09:45.999Z,1015.91
2018-05-18T02:10:45.963Z,1015.91
2018-05-18T02:11:45.937Z,1015.85
2018-05-18T02:12:45.913Z,1015.87
2018-05-18T02:13:45.889Z,1015.84
2018-05-18T02:14:45.858Z,1015.87
2018-05-18T02:15:45.836Z,1015.85
2018-05-18T02:16:45.802Z,1015.89
2018-05-18T02:17:45.777Z,1015.91
2018-05-18T02:18:45.754Z,1015.88
2018-05-18T02:19:45.724Z,1015.95
2018-05-18T02:20:45.698Z,1015.99
2018-05-18T02:21:45.669Z,1015.89
2018-05-18T02:22:45.644Z,1015.95
2018-05-18T02:23:45.612Z,1015.93
2018-05-18T02:24:45.595Z,1015.91
2018-05-18T02:25:45.561Z,1015.94
2018-05-18T02:26:45.533Z,1015.94
2018-05-18T02:27:45.504Z,1015.91
2018-05-18T02:28:45.475Z,1015.98
2018-05-18T02:29:45.461Z,1015.90
2018-05-18T02:30:45.428Z,1015.92
2018-05-18T02:31:45.404Z,1015.91
2018-05-18T02:32:45.370Z,1015.93
2018-05-18T02:33:45.350Z,1015.93
2018-05-18T02:34:45.321Z,1015.90
2018-05-18T02:35:45.307Z,1015.90
2018-05-18T02:36:45.289Z,1015.95
2018-05-18T02:37:45.237Z,1015.93
2018-05-18T02:38:45.209Z,1015.90
2018-05-18T02:39:45.189Z,1015.87
2018-05-18T02:40:45.152Z,1015.85
2018-05-18T02:41:45.135Z,1015.86
2018-05-18T02:42:45.108Z,1015.88
2018-05-18T02:43:45.080Z,1015.78
2018-05-18T02:44:45.044Z,1015.83
2018-05-18T02:45:45.019Z,1015.84
2018-05-18T02:46:45.001Z,1015.84
2018-05-18T02:47:44.963Z,1015.89
2018-05-18T02:48:44.944Z,1015.84
2018-05-18T02:49:44.908Z,1015.86
2018-05-18T02:50:44.887Z,1015.89
2018-05-18T02:51:44.860Z,1015.86
2018-05-18T02:52:44.838Z,1015.86
2018-05-18T02:53:44.810Z,1015.84
2018-05-18T02:54:44.783Z,1015.81
2018-05-18T02:55:44.748Z,1015.84
2018-05-18T02:56:44.723Z,1015.82
2018-05-18T02:57:44.697Z,1015.84
2018-05-18T02:58:44.675Z,1015.85
2018-05-18T02:59:44.642Z,1015.87
2018-05-18T03:00:44.622Z,1015.88
2018-05-18T03:01:44.593Z,1015.89
2018-05-18T03:02:44.611Z,1015.86
2018-05-18T03:03:44.534Z,1015.85
2018-05-18T03:04:44.505Z,1015.86
2018-05-18T03:05:44.484Z,1015.88
2018-05-18T03:06:44.503Z,1015.96
2018-05-18T03:07:44.477Z,1015.99
2018-05-18T03:08:44.407Z,1015.93
2018-05-18T03:09:44.369Z,1015.97
2018-05-18T03:10:44.342Z,1015.92
2018-05-18T03:11:44.320Z,1015.93
2018-05-18T03:12:44.293Z,1015.93
2018-05-18T03:13:44.265Z,1015.93
2018-05-18T03:14:44.231Z,1015.99
2018-05-18T03:15:44.212Z,1015.91
2018-05-18T03:16:44.178Z,1015.97
2018-05-18T03:17:44.154Z,1015.95
2018-05-18T03:18:44.130Z,1015.96
2018-05-18T03:19:44.099Z,1015.99
2018-05-18T03:20:44.075Z,1016.01
2018-05-18T03:21:44.042Z,1015.98
2018-05-18T03:22:44.014Z,1016.09
2018-05-18T03:23:43.989Z,1015.98
2018-05-18T03:24:43.963Z,1015.93
2018-05-18T03:25:43.937Z,1015.91
2018-05-18T03:26:43.910Z,1015.92
2018-05-18T03:27:43.881Z,1015.92
2018-05-18T03:28:43.848Z,1015.97
2018-05-18T03:29:43.824Z,1015.95
2018-05-18T03:30:43.796Z,1015.93
2018-05-18T03:31:43.763Z,1015.91
2018-05-18T03:32:43.735Z,1015.99
2018-05-18T03:33:43.725Z,1015.96
2018-05-18T03:34:43.681Z,1015.94
2018-05-18T03:35:43.663Z,1015.92
2018-05-18T03:36:43.660Z,1015.93
2018-05-18T03:37:43.601Z,1015.97
2018-05-18T03:38:43.572Z,1015.98
2018-05-18T03:39:43.556Z,1016.06
2018-05-18T03:40:43.518Z,1015.95
2018-05-18T03:41:43.495Z,1015.97
2018-05-18T03:42:43.473Z,1015.94
2018-05-18T03:43:43.437Z,1015.96
2018-05-18T03:44:43.406Z,1015.95
2018-05-18T03:45:43.392Z,1015.95
2018-05-18T03:46:43.359Z,1015.93
2018-05-18T03:47:43.332Z,1015.96
2018-05-18T03:48:43.308Z,1015.97
2018-05-18T03:49:43.274Z,1015.94
2018-05-18T03:50:43.254Z,1015.95
2018-05-18T03:51:43.214Z,1015.96
2018-05-18T03:52:43.197Z,1015.97
2018-05-18T03:53:43.165Z,1015.97
2018-05-18T03:54:43.146Z,1015.97
2018-05-18T03:55:43.106Z,1016.04
2018-05-18T03:56:43.079Z,1016.06
2018-05-18T03:57:43.064Z,1016.05
2018-05-18T03:58:43.026Z,1016.10
2018-05-18T03:59:43.005Z,1016.04
2018-05-18T04:00:42.989Z,1016.07
2018-05-18T04:01:42.947Z,1016.10
2018-05-18T04:02:42.915Z,1016.08
2018-05-18T04:03:42.900Z,1016.06
2018-05-18T04:04:42.908Z,1016.09
2018-05-18T04:05:42.839Z,1016.11
2018-05-18T04:06:42.815Z,1016.09
2018-05-18T04:07:42.780Z,1016.12
2018-05-18T04:08:42.768Z,1016.10
2018-05-18T04:09:42.724Z,1016.06
2018-05-18T04:10:42.705Z,1016.08
2018-05-18T04:11:42.674Z,1016.07
2018-05-18T04:12:42.652Z,1016.15
2018-05-18T04:13:42.623Z,1016.15
2018-05-18T04:14:42.594Z,1016.15
2018-05-18T04:15:42.566Z,1016.16
2018-05-18T04:16:42.536Z,1016.18
2018-05-18T04:17:42.514Z,1016.18
2018-05-18T04:18:42.483Z,1016.18
2018-05-18T04:19:42.465Z,1016.17
2018-05-18T04:20:42.434Z,1016.20
2018-05-18T04:21:42.400Z,1016.27
2018-05-18T04:22:42.370Z,1016.26
2018-05-18T04:23:42.342Z,1016.23
2018-05-18T04:24:42.315Z,1016.26
2018-05-18T04:25:42.293Z,1016.24
2018-05-18T04:26:42.266Z,1016.24
2018-05-18T04:27:42.237Z,1016.28
2018-05-18T04:28:42.214Z,1016.24
2018-05-18T04:29:42.180Z,1016.27
2018-05-18T04:30:42.161Z,1016.28
2018-05-18T04:31:42.122Z,1016.26
2018-05-18T04:32:42.097Z,1016.29
2018-05-18T04:33:42.082Z,1016.28
2018-05-18T04:34:42.042Z,1016.32
2018-05-18T04:35:42.017Z,1016.29
2018-05-18T04:36:41.991Z,1016.28
2018-05-18T04:37:41.970Z,1016.27
2018-05-18T04:38:41.936Z,1016.27
2018-05-18T04:39:41.912Z,1016.29
2018-05-18T04:40:41.881Z,1016.29
2018-05-18T04:41:41.864Z,1016.34
2018-05-18T04:42:41.835Z,1016.27
2018-05-18T04:43:41.797Z,1016.26
2018-05-18T04:44:41.779Z,1016.29
2018-05-18T04:45:41.747Z,1016.28
2018-05-18T04:46:41.715Z,1016.32
2018-05-18T04:47:41.696Z,1016.30
2018-05-18T04:48:41.673Z,1016.36
2018-05-18T04:49:41.634Z,1016.34
2018-05-18T04:50:41.614Z,1016.39
2018-05-18T04:51:41.585Z,1016.37
2018-05-18T04:52:41.557Z,1016.36
2018-05-18T04:53:45.158Z,1016.43
2018-05-18T04:54:44.186Z,1016.40
2018-05-18T04:55:43.669Z,1016.42
2018-05-18T04:56:42.600Z,1016.40
2018-05-18T04:57:44.397Z,1016.38
2018-05-18T04:58:41.390Z,1016.39
2018-05-18T04:59:41.370Z,1016.38
2018-05-18T05:00:41.340Z,1016.36
2018-05-18T05:01:41.319Z,1016.43
2018-05-18T05:02:42.686Z,1016.45
2018-05-18T05:03:41.261Z,1016.39
2018-05-18T05:04:41.235Z,1016.42
2018-05-18T05:05:41.209Z,1016.42
2018-05-18T05:06:41.184Z,1016.39
2018-05-18T05:07:41.153Z,1016.40
2018-05-18T05:08:41.124Z,1016.34
2018-05-18T05:09:41.092Z,1016.39
2018-05-18T05:10:41.073Z,1016.42
2018-05-18T05:11:41.059Z,1016.44
2018-05-18T05:12:42.666Z,1016.42
2018-05-18T05:13:43.138Z,1016.43
2018-05-18T05:14:42.943Z,1016.45
2018-05-18T05:15:43.146Z,1016.46
2018-05-18T05:16:43.052Z,1016.48
2018-05-18T05:17:40.884Z,1016.46
2018-05-18T05:18:40.859Z,1016.50
2018-05-18T05:19:40.823Z,1016.54
2018-05-18T05:20:40.800Z,1016.48
2018-05-18T05:21:40.766Z,1016.47
2018-05-18T05:22:40.747Z,1016.53
2018-05-18T05:23:40.807Z,1016.57
2018-05-18T05:24:40.685Z,1016.52
2018-05-18T05:25:40.667Z,1016.53
2018-05-18T05:26:40.639Z,1016.58
2018-05-18T05:27:40.649Z,1016.57
2018-05-18T05:28:40.578Z,1016.57
2018-05-18T05:29:40.556Z,1016.57
2018-05-18T05:30:40.613Z,1016.55
2018-05-18T05:31:40.612Z,1016.56
2018-05-18T05:32:40.511Z,1016.59
2018-05-18T05:33:40.439Z,1016.58
2018-05-18T05:34:40.653Z,1016.66
2018-05-18T05:35:40.481Z,1016.59
2018-05-18T05:36:40.489Z,1016.62
2018-05-18T05:37:40.339Z,1016.61
2018-05-18T05:38:41.130Z,1016.64
2018-05-18T05:39:40.279Z,1016.62
2018-05-18T05:40:40.252Z,1016.66
2018-05-18T05:41:40.255Z,1016.64
2018-05-18T05:42:40.198Z,1016.62
2018-05-18T05:43:40.171Z,1016.62
2018-05-18T05:44:40.145Z,1016.66
2018-05-18T05:45:40.123Z,1016.63
2018-05-18T05:46:40.098Z,1016.58
2018-05-18T05:47:40.061Z,1016.65
2018-05-18T05:48:40.049Z,1016.67
2018-05-18T05:49:40.015Z,1016.65
2018-05-18T05:50:39.981Z,1016.64
2018-05-18T05:51:39.964Z,1016.65
2018-05-18T05:52:39.934Z,1016.64
2018-05-18T05:53:39.927Z,1016.60
2018-05-18T05:54:39.875Z,1016.64
2018-05-18T05:55:39.845Z,1016.66
2018-05-18T05:56:39.817Z,1016.63
2018-05-18T05:57:39.794Z,1016.63
2018-05-18T05:58:39.769Z,1016.67
2018-05-18T05:59:39.744Z,1016.62
2018-05-18T06:00:39.715Z,1016.69
2018-05-18T06:01:39.685Z,1016.63
2018-05-18T06:02:39.666Z,1016.71
2018-05-18T06:03:39.643Z,1016.70
2018-05-18T06:04:39.604Z,1016.73
2018-05-18T06:05:39.586Z,1016.69
2018-05-18T06:06:39.561Z,1016.73
2018-05-18T06:07:39.539Z,1016.71
2018-05-18T06:08:39.499Z,1016.82
2018-05-18T06:09:39.482Z,1016.74
2018-05-18T06:10:39.464Z,1016.74
2018-05-18T06:11:39.424Z,1016.76
2018-05-18T06:12:39.395Z,1016.72
2018-05-18T06:13:39.359Z,1016.77
2018-05-18T06:14:39.335Z,1016.79
2018-05-18T06:15:39.312Z,1016.70
2018-05-18T06:16:39.291Z,1016.74
2018-05-18T06:17:39.250Z,1016.68
2018-05-18T06:18:39.228Z,1016.74
2018-05-18T06:19:39.203Z,1016.70
2018-05-18T06:20:39.171Z,1016.75
2018-05-18T06:21:39.151Z,1016.74
2018-05-18T06:22:39.114Z,1016.73
2018-05-18T06:23:39.099Z,1016.79
2018-05-18T06:24:39.076Z,1016.78
2018-05-18T06:25:39.041Z,1016.84
2018-05-18T06:26:39.018Z,1016.80
2018-05-18T06:27:38.985Z,1016.80
2018-05-18T06:28:39.042Z,1016.86
2018-05-18T06:29:38.941Z,1016.87
2018-05-18T06:30:38.912Z,1016.92
2018-05-18T06:31:38.914Z,1016.94
2018-05-18T06:32:38.850Z,1016.93
2018-05-18T06:33:38.832Z,1016.91
2018-05-18T06:34:38.922Z,1016.91
2018-05-18T06:35:38.770Z,1016.91
2018-05-18T06:36:38.751Z,1016.91
2018-05-18T06:37:38.719Z,1016.94
2018-05-18T06:38:38.860Z,1016.97
2018-05-18T06:39:38.665Z,1016.99
2018-05-18T06:40:38.664Z,1016.98
2018-05-18T06:41:38.614Z,1016.96
2018-05-18T06:42:38.588Z,1016.93
2018-05-18T06:43:38.562Z,1016.93
2018-05-18T06:44:38.536Z,1016.97
2018-05-18T06:45:38.516Z,1016.95
2018-05-18T06:46:38.483Z,1016.98
2018-05-18T06:47:38.447Z,1016.97
2018-05-18T06:48:38.433Z,1016.94
2018-05-18T06:49:38.394Z,1016.93
2018-05-18T06:50:38.399Z,1016.91
2018-05-18T06:51:38.436Z,1016.91
2018-05-18T06:52:38.356Z,1016.93
2018-05-18T06:53:38.299Z,1016.94
2018-05-18T06:54:38.270Z,1016.91
2018-05-18T06:55:38.238Z,1016.98
2018-05-18T06:56:38.212Z,1016.94
2018-05-18T06:57:38.187Z,1017.01
2018-05-18T06:58:38.243Z,1016.96
2018-05-18T06:59:38.131Z,1017.00
2018-05-18T07:00:38.103Z,1016.98
2018-05-18T07:01:38.080Z,1016.95
2018-05-18T07:02:38.053Z,1016.99
2018-05-18T07:03:38.035Z,1016.99
2018-05-18T07:04:38.003Z,1016.98
2018-05-18T07:05:38.030Z,1016.97
2018-05-18T07:06:37.955Z,1017.05
2018-05-18T07:07:37.925Z,1016.98
2018-05-18T07:08:37.901Z,1017.03
2018-05-18T07:09:37.867Z,1017.06
2018-05-18T07:10:37.862Z,1017.11
2018-05-18T07:11:37.821Z,1017.12
2018-05-18T07:12:37.797Z,1017.09
2018-05-18T07:13:37.764Z,1017.10
2018-05-18T07:14:37.736Z,1017.08
2018-05-18T07:15:37.710Z,1017.07
2018-05-18T07:16:37.744Z,1017.11
2018-05-18T07:17:37.664Z,1017.06
2018-05-18T07:18:37.634Z,1017.02
2018-05-18T07:19:37.609Z,1017.04
2018-05-18T07:20:37.585Z,1016.98
2018-05-18T07:21:37.549Z,1017.00
2018-05-18T07:22:37.535Z,1017.02
2018-05-18T07:23:37.497Z,1016.97
2018-05-18T07:24:37.469Z,1016.99
2018-05-18T07:25:37.452Z,1017.00
2018-05-18T07:26:37.419Z,1017.06
2018-05-18T07:27:37.399Z,1017.02
2018-05-18T07:28:37.367Z,1017.08
2018-05-18T07:29:37.339Z,1016.99
2018-05-18T07:30:37.312Z,1017.00
2018-05-18T07:31:37.288Z,1017.02
2018-05-18T07:32:37.265Z,1017.03
2018-05-18T07:33:37.237Z,1017.02
2018-05-18T07:34:37.210Z,1017.05
2018-05-18T07:35:37.189Z,1017.05
2018-05-18T07:36:37.155Z,1017.04
2018-05-18T07:37:37.140Z,1017.03
2018-05-18T07:38:37.102Z,1017.03
2018-05-18T07:39:37.089Z,1017.04
2018-05-18T07:40:37.050Z,1017.05
2018-05-18T07:41:37.024Z,1017.04
2018-05-18T07:42:37.005Z,1017.06
2018-05-18T07:43:36.969Z,1017.03
2018-05-18T07:44:36.943Z,1017.03
2018-05-18T07:45:36.925Z,1017.00
2018-05-18T07:46:36.897Z,1017.01
2018-05-18T07:47:36.885Z,1017.02
2018-05-18T07:48:36.843Z,1017.05
2018-05-18T07:49:36.815Z,1017.08
2018-05-18T07:50:36.802Z,1017.07
2018-05-18T07:51:36.835Z,1017.06
2018-05-18T07:52:36.745Z,1017.09
2018-05-18T07:53:36.766Z,1017.12
2018-05-18T07:54:36.687Z,1017.11
2018-05-18T07:55:36.663Z,1017.13
2018-05-18T07:56:36.641Z,1017.22
2018-05-18T07:57:36.615Z,1017.16
2018-05-18T07:58:36.586Z,1017.15
2018-05-18T07:59:36.629Z,1017.17
2018-05-18T08:00:36.537Z,1017.13
2018-05-18T08:01:36.506Z,1017.14
2018-05-18T08:02:36.500Z,1017.18
2018-05-18T08:03:36.457Z,1017.18
2018-05-18T08:04:36.432Z,1017.20
2018-05-18T08:05:36.459Z,1017.16
2018-05-18T08:06:36.380Z,1017.12
2018-05-18T08:07:36.403Z,1017.05
2018-05-18T08:08:36.364Z,1017.15
2018-05-18T08:09:36.322Z,1017.12
2018-05-18T08:10:36.274Z,1017.08
2018-05-18T08:11:36.308Z,1017.08
2018-05-18T08:12:36.228Z,1017.10
2018-05-18T08:13:36.194Z,1017.15
2018-05-18T08:14:36.173Z,1017.18
2018-05-18T08:15:36.147Z,1017.19
2018-05-18T08:16:36.140Z,1017.23
2018-05-18T08:17:36.097Z,1017.26
2018-05-18T08:18:36.067Z,1017.23
2018-05-18T08:19:36.038Z,1017.23
2018-05-18T08:20:36.021Z,1017.19
2018-05-18T08:21:36.014Z,1017.22
2018-05-18T08:22:35.976Z,1017.18
2018-05-18T08:23:35.960Z,1017.20
2018-05-18T08:24:35.908Z,1017.18
2018-05-18T08:25:35.899Z,1017.15
2018-05-18T08:26:35.868Z,1017.23
2018-05-18T08:27:35.909Z,1017.13
2018-05-18T08:28:35.818Z,1017.23
2018-05-18T08:29:35.786Z,1017.26
2018-05-18T08:30:35.763Z,1017.23
2018-05-18T08:31:35.736Z,1017.26
2018-05-18T08:32:35.711Z,1017.19
2018-05-18T08:33:35.737Z,1017.19
2018-05-18T08:34:35.655Z,1017.19
2018-05-18T08:35:35.673Z,1017.18
2018-05-18T08:36:35.605Z,1017.16
2018-05-18T08:37:35.584Z,1017.18
2018-05-18T08:38:35.556Z,1017.14
2018-05-18T08:39:35.532Z,1017.12
2018-05-18T08:40:35.509Z,1017.12
2018-05-18T08:41:35.477Z,1017.09
2018-05-18T08:42:35.456Z,1017.13
2018-05-18T08:43:35.442Z,1017.10
2018-05-18T08:44:35.398Z,1017.14
2018-05-18T08:45:35.382Z,1017.22
2018-05-18T08:46:35.356Z,1017.19
2018-05-18T08:47:35.368Z,1017.19
2018-05-18T08:48:35.301Z,1017.31
2018-05-18T08:49:35.277Z,1017.18
2018-05-18T08:50:35.248Z,1017.15
2018-05-18T08:51:35.226Z,1017.21
2018-05-18T08:52:35.202Z,1017.20
2018-05-18T08:53:35.174Z,1017.12
2018-05-18T08:54:35.150Z,1017.09
2018-05-18T08:55:35.121Z,1017.12
2018-05-18T08:56:35.100Z,1017.12
2018-05-18T08:57:35.075Z,1017.09
2018-05-18T08:58:35.042Z,1017.09
2018-05-18T08:59:36.106Z,1017.10
2018-05-18T09:00:35.050Z,1017.10
2018-05-18T09:01:34.972Z,1017.14
2018-05-18T09:02:34.974Z,1017.17
2018-05-18T09:03:34.916Z,1017.11
2018-05-18T09:04:34.896Z,1017.10
2018-05-18T09:05:34.874Z,1017.08
2018-05-18T09:06:34.845Z,1017.03
2018-05-18T09:07:34.842Z,1017.06
2018-05-18T09:08:34.801Z,1017.11
2018-05-18T09:09:34.770Z,1017.11
2018-05-18T09:10:34.742Z,1017.11
2018-05-18T09:11:34.718Z,1017.16
2018-05-18T09:12:34.690Z,1017.05
2018-05-18T09:13:34.669Z,1017.07
2018-05-18T09:14:34.641Z,1017.09
2018-05-18T09:15:34.615Z,1017.06
2018-05-18T09:16:34.591Z,1017.08
2018-05-18T09:17:34.562Z,1017.05
2018-05-18T09:18:34.541Z,1017.05
2018-05-18T09:19:34.512Z,1017.06
2018-05-18T09:20:34.491Z,1017.02
2018-05-18T09:21:34.470Z,1017.01
2018-05-18T09:22:34.432Z,1016.99
2018-05-18T09:23:34.406Z,1017.05
2018-05-18T09:24:34.383Z,1017.09
2018-05-18T09:25:34.365Z,1017.09
2018-05-18T09:26:34.446Z,1017.07
2018-05-18T09:27:34.316Z,1017.07
2018-05-18T09:28:34.280Z,1017.07
2018-05-18T09:29:34.264Z,1017.08
2018-05-18T09:30:34.241Z,1017.10
2018-05-18T09:31:34.212Z,1017.13
2018-05-18T09:32:34.189Z,1017.16
2018-05-18T09:33:34.154Z,1017.11
2018-05-18T09:34:34.132Z,1017.11
2018-05-18T09:35:34.109Z,1017.13
2018-05-18T09:36:34.079Z,1017.14
2018-05-18T09:37:34.062Z,1017.11
2018-05-18T09:38:34.035Z,1017.10
2018-05-18T09:39:34.008Z,1017.08
2018-05-18T09:40:33.988Z,1017.11
2018-05-18T09:41:33.951Z,1017.08
2018-05-18T09:42:33.929Z,1017.06
2018-05-18T09:43:33.907Z,1017.04
2018-05-18T09:44:33.885Z,1017.05
2018-05-18T09:45:33.850Z,1017.01
2018-05-18T09:46:33.827Z,1017.01
2018-05-18T09:47:33.804Z,1017.04
2018-05-18T09:48:33.773Z,1017.02
2018-05-18T09:49:33.771Z,1016.98
2018-05-18T09:50:33.730Z,1016.96
2018-05-18T09:51:33.700Z,1017.01
2018-05-18T09:52:33.680Z,1016.94
2018-05-18T09:53:33.649Z,1016.93
2018-05-18T09:54:33.817Z,1016.93
2018-05-18T09:55:33.828Z,1017.03
2018-05-18T09:56:33.569Z,1016.97
2018-05-18T09:57:33.555Z,1016.88
2018-05-18T09:58:33.528Z,1016.96
2018-05-18T09:59:33.503Z,1016.98
2018-05-18T10:00:33.477Z,1017.04
2018-05-18T10:01:33.449Z,1017.06
2018-05-18T10:02:33.430Z,1017.05
2018-05-18T10:03:33.397Z,1017.05
2018-05-18T10:04:33.454Z,1016.99
2018-05-18T10:05:33.352Z,1017.00
2018-05-18T10:06:33.333Z,1017.00
2018-05-18T10:07:33.296Z,1016.97
2018-05-18T10:08:33.270Z,1017.05
2018-05-18T10:09:33.263Z,1017.00
2018-05-18T10:10:33.220Z,1016.98
2018-05-18T10:11:33.201Z,1016.96
2018-05-18T10:12:33.178Z,1016.98
2018-05-18T10:13:33.144Z,1016.99
2018-05-18T10:14:33.127Z,1017.00
2018-05-18T10:15:33.093Z,1017.11
2018-05-18T10:16:33.071Z,1017.03
2018-05-18T10:17:33.050Z,1017.02
2018-05-18T10:18:33.067Z,1017.02
2018-05-18T10:19:32.994Z,1017.09
2018-05-18T10:20:32.978Z,1017.11
2018-05-18T10:21:32.950Z,1017.08
2018-05-18T10:22:32.925Z,1017.09
2018-05-18T10:23:32.897Z,1017.10
2018-05-18T10:24:32.874Z,1017.08
2018-05-18T10:25:32.853Z,1017.05
2018-05-18T10:26:32.830Z,1017.00
2018-05-18T10:27:32.801Z,1016.94
2018-05-18T10:28:32.769Z,1016.97
2018-05-18T10:29:32.751Z,1016.92
2018-05-18T10:30:32.725Z,1016.99
2018-05-18T10:31:32.705Z,1017.01
2018-05-18T10:32:32.676Z,1017.02
2018-05-18T10:33:32.648Z,1017.07
2018-05-18T10:34:32.622Z,1017.05
2018-05-18T10:35:32.603Z,1017.24
2018-05-18T10:36:32.576Z,1017.11
2018-05-18T10:37:32.551Z,1017.05
2018-05-18T10:38:32.532Z,1017.04
2018-05-18T10:39:32.572Z,1017.08
2018-05-18T10:40:32.471Z,1017.16
2018-05-18T10:41:32.453Z,1017.08
2018-05-18T10:42:32.428Z,1017.09
2018-05-18T10:43:32.406Z,1017.13
2018-05-18T10:44:32.381Z,1017.09
2018-05-18T10:45:32.347Z,1017.09
2018-05-18T10:46:32.330Z,1017.16
2018-05-18T10:47:32.298Z,1017.09
2018-05-18T10:48:32.279Z,1017.10
2018-05-18T10:49:32.282Z,1017.05
2018-05-18T10:50:32.232Z,1017.04
2018-05-18T10:51:32.200Z,1017.03
2018-05-18T10:52:32.182Z,1017.08
2018-05-18T10:53:32.153Z,1017.11
2018-05-18T10:54:32.127Z,1017.12
2018-05-18T10:55:32.108Z,1017.09
2018-05-18T10:56:32.085Z,1017.10
2018-05-18T10:57:32.050Z,1017.07
2018-05-18T10:58:32.051Z,1017.10
2018-05-18T10:59:32.003Z,1017.09
2018-05-18T11:00:31.983Z,1017.06
2018-05-18T11:01:31.962Z,1017.10
2018-05-18T11:02:31.931Z,1017.15
2018-05-18T11:03:31.912Z,1017.05
2018-05-18T11:04:31.887Z,1017.10
2018-05-18T11:05:31.864Z,1017.07
2018-05-18T11:06:31.836Z,1017.08
2018-05-18T11:07:31.810Z,1017.05
2018-05-18T11:08:31.787Z,1016.99
2018-05-18T11:09:31.763Z,1017.00
2018-05-18T11:10:31.736Z,1016.99
2018-05-18T11:11:31.711Z,1017.00
2018-05-18T11:12:31.688Z,1016.97
2018-05-18T11:13:31.664Z,1017.00
2018-05-18T11:14:31.634Z,1016.99
2018-05-18T11:15:31.610Z,1016.99
2018-05-18T11:16:31.597Z,1016.92
2018-05-18T11:17:31.566Z,1016.98
2018-05-18T11:18:31.538Z,1016.96
2018-05-18T11:19:31.514Z,1016.96
2018-05-18T11:20:31.488Z,1016.96
2018-05-18T11:21:31.471Z,1016.90
2018-05-18T11:22:31.442Z,1016.88
2018-05-18T11:23:31.417Z,1016.88
2018-05-18T11:24:31.393Z,1016.83
2018-05-18T11:25:31.365Z,1016.89
2018-05-18T11:26:31.359Z,1016.84
2018-05-18T11:27:31.317Z,1016.82
2018-05-18T11:28:31.289Z,1016.92
2018-05-18T11:29:31.265Z,1016.96
2018-05-18T11:30:31.251Z,1016.89
2018-05-18T11:31:31.221Z,1016.89
2018-05-18T11:32:31.201Z,1017.07
2018-05-18T11:33:31.171Z,1016.90
2018-05-18T11:34:31.152Z,1016.99
2018-05-18T11:35:31.122Z,1016.94
2018-05-18T11:36:31.098Z,1016.88
2018-05-18T11:37:31.073Z,1016.99
2018-05-18T11:38:31.049Z,1016.84
2018-05-18T11:39:31.025Z,1016.78
2018-05-18T11:40:31.000Z,1016.80
2018-05-18T11:41:30.978Z,1016.77
2018-05-18T11:42:30.959Z,1016.76
2018-05-18T11:43:30.964Z,1016.72
2018-05-18T11:44:30.904Z,1016.74
2018-05-18T11:45:30.893Z,1016.85
2018-05-18T11:46:30.855Z,1016.79
2018-05-18T11:47:30.834Z,1016.73
2018-05-18T11:48:30.804Z,1016.74
2018-05-18T11:49:30.781Z,1016.70
2018-05-18T11:50:30.761Z,1016.79
2018-05-18T11:51:30.731Z,1016.80
2018-05-18T11:52:30.707Z,1016.74
2018-05-18T11:53:30.683Z,1016.71
2018-05-18T11:54:30.662Z,1016.73
2018-05-18T11:55:30.632Z,1016.62
2018-05-18T11:56:30.611Z,1016.61
2018-05-18T11:57:30.583Z,1016.61
2018-05-18T11:58:30.563Z,1016.63
2018-05-18T11:59:30.540Z,1016.63
2018-05-18T12:00:31.196Z,1016.70
2018-05-18T12:01:30.483Z,1016.69
2018-05-18T12:02:30.465Z,1016.63
2018-05-18T12:03:30.434Z,1016.62
2018-05-18T12:04:30.434Z,1016.63
2018-05-18T12:05:30.399Z,1016.63